Green Bay, WI

10:42 AM CST on December 21, 2014 (GMT -0600)
Nicolet Airfield | Change Station
CLOSE
Current Station
Personal Weather Station
Location: Green Bay, WI
Elevation: 791 ft
Nearby Weather Stations

Elev 791 ft 44.51 °N, 87.86 °W | Updated 44 seconds ago

Overcast
Overcast
33.5 °F
Feels Like 27 °F
N
8.0
Wind Variable Wind from WNW
Gusts 18.0 mph

Today
High -- | Low -- °F
--% Chance of Precip.
Yesterday
High -- | Low -- °F
Precip. -- in
7:24 AM 4:14 PM
Waning Crescent, 0% visible
Pressure 30.12 in
Visibility 2.5 miles
Clouds Mostly Cloudy 900 ft
Overcast 1400 ft
Windchill 27 °F
Dew Point 31 °F
Humidity 92%
Rainfall 0.00 in
Snow Depth Not available.
UV 0 out of 12
Pollen .10 out of 12
Air Quality Not available.
Flu Activity Not available.
SPECI KGRB 211601Z 17007KT 2 1/2SM -SN BR BKN009 OVC014 01/M01 A3012 RMK AO2 SNB1554 P0000 T00061011

More Conditions Fewer Conditions

Pressure 30.12 in
Visibility 2.5 miles
Clouds Mostly Cloudy 900 ft
Overcast 1400 ft
Windchill 27 °F
Dew Point 31 °F
Humidity 92%
Rainfall 0.00 in
Snow Depth Not available.
UV 0 out of 12
Pollen .10 out of 12
Air Quality Not available.
Flu Activity Not available.
SPECI KGRB 211601Z 17007KT 2 1/2SM -SN BR BKN009 OVC014 01/M01 A3012 RMK AO2 SNB1554 P0000 T00061011

More Conditions Fewer Conditions

10-Day Weather Forecast

Almanac

Astronomy

Dec. 21, 2014 Rise Set
Actual Time
Civil Twilight
Nautical Twilight
Astronomical Twilight
Moon
Length of Visible Light
Length of Day
Tomorrow will be .
, % of the Moon is Illuminated

Today's Extremes

State Highs State Lows

Community

WunderPhotos

Upload Photos

1,779,433 photos uploaded!

WunderBlogs® & News

Nearby

Air Quality

  Air Quality AQ Index Pollutant
Not available.

Snow Depth

Station Depth Elevation

Earthquake Activity

City Distance Mag. Time & Date
Minimum magnitude displayed is 2.5.

Coastal Water Temperatures

Place Temperature

Nearby Weather Stations